Time;durP1;ratioP1;P1;durP2;ratioP2;P2;SDS_P1;SDS_P2;PMS_P1;PMS_P2;Temp;Humidity;BMP_temperature;BMP_pressure;BME280_temperature;BME280_humidity;BME280_pressure;Samples;Min_cycle;Max_cycle;Signal;HPM_P1;HPM_P2
2022/10/15 00:02:10;;;;;;;2.13;1.70;;;14.60;1.00;;;;;;5009937;28;20770;-70
2022/10/15 00:04:36;;;;;;;2.33;1.70;;;14.50;1.00;;;;;;5010977;28;20234;-69
2022/10/15 00:07:02;;;;;;;3.10;1.40;;;14.50;1.00;;;;;;5010706;28;20613;-70
2022/10/15 00:09:28;;;;;;;6.47;1.70;;;14.50;1.00;;;;;;5010047;28;20164;-69
2022/10/15 00:11:54;;;;;;;4.47;1.83;;;14.60;1.00;;;;;;5009085;28;20264;-69
2022/10/15 00:14:19;;;;;;;1.77;1.27;;;14.60;1.00;;;;;;5009910;28;20466;-69
2022/10/15 00:16:45;;;;;;;5.67;3.10;;;14.60;1.00;;;;;;5009456;28;21151;-69
2022/10/15 00:19:11;;;;;;;2.10;1.67;;;14.60;1.00;;;;;;5009841;28;20564;-69
2022/10/15 00:21:37;;;;;;;2.10;1.90;;;14.60;1.00;;;;;;5009013;28;20165;-69
2022/10/15 00:24:04;;;;;;;17.07;2.90;;;14.60;1.00;;;;;;5010499;28;20200;-70
2022/10/15 00:26:30;;;;;;;4.20;2.00;;;14.60;1.00;;;;;;5021193;28;20417;-69
2022/10/15 00:28:59;;;;;;;3.80;1.80;;;14.60;1.00;;;;;;5029786;28;20786;-69
2022/10/15 00:31:27;;;;;;;4.53;1.63;;;14.50;1.00;;;;;;5028206;28;20902;-69
2022/10/15 00:33:55;;;;;;;8.80;2.07;;;14.50;1.00;;;;;;5019698;28;20439;-69
2022/10/15 00:36:23;;;;;;;2.33;1.60;;;14.50;1.00;;;;;;5016012;28;20427;-70
2022/10/15 00:38:49;;;;;;;1.67;1.40;;;14.40;1.00;;;;;;5025415;28;20421;-69
2022/10/15 00:41:20;;;;;;;1.90;1.37;;;14.50;1.00;;;;;;5028393;28;20547;-70
2022/10/15 00:43:48;;;;;;;2.00;1.47;;;14.60;1.00;;;;;;5029634;28;20433;-69
2022/10/15 00:46:32;;;;;;;2.27;1.67;;;14.50;1.00;;;;;;5022338;28;20486;-69
2022/10/15 00:49:03;;;;;;;2.20;1.50;;;14.50;1.00;;;;;;5029910;28;20414;-69
2022/10/15 00:51:34;;;;;;;3.17;1.63;;;14.50;1.00;;;;;;5032371;28;20406;-70
2022/10/15 00:54:00;;;;;;;1.70;1.60;;;14.50;1.00;;;;;;5033077;28;20438;-70
2022/10/15 00:56:29;;;;;;;2.50;1.47;;;14.50;1.00;;;;;;5025034;28;20485;-70
2022/10/15 00:58:56;;;;;;;3.07;1.50;;;14.50;1.00;;;;;;5020486;28;20188;-70
2022/10/15 01:01:24;;;;;;;2.43;1.20;;;14.50;1.00;;;;;;5020379;28;20458;-69
2022/10/15 01:03:51;;;;;;;2.20;1.63;;;14.60;1.00;;;;;;5013010;28;20515;-71
2022/10/15 01:06:17;;;;;;;3.20;1.50;;;14.50;1.00;;;;;;5019972;28;20451;-70
2022/10/15 01:08:43;;;;;;;1.87;1.40;;;14.60;1.00;;;;;;5028220;28;20434;-70
2022/10/15 01:11:21;;;;;;;1.63;1.53;;;14.50;1.00;;;;;;5031707;28;20861;-68
2022/10/15 01:14:19;;;;;;;1.80;1.47;;;14.50;1.00;;;;;;5032655;28;21014;-70
2022/10/15 01:16:48;;;;;;;4.40;1.70;;;14.50;1.00;;;;;;5031929;28;20520;-68
2022/10/15 01:19:30;;;;;;;9.20;1.73;;;14.50;1.00;;;;;;5032722;28;20403;-69
2022/10/15 01:22:15;;;;;;;8.33;2.83;;;14.50;1.00;;;;;;5029907;28;20497;-69
2022/10/15 01:25:02;;;;;;;5.77;1.77;;;14.50;1.00;;;;;;5032141;28;20426;-69
2022/10/15 01:27:37;;;;;;;1.73;1.27;;;14.60;1.00;;;;;;5032049;28;20406;-69
2022/10/15 01:30:26;;;;;;;2.50;2.10;;;14.60;1.00;;;;;;5032461;28;20898;-69
2022/10/15 01:33:20;;;;;;;3.37;1.57;;;14.50;1.00;;;;;;5032304;28;20403;-69
2022/10/15 01:36:13;;;;;;;1.87;1.00;;;14.50;1.00;;;;;;5013333;28;20427;-67
2022/10/15 01:38:54;;;;;;;2.80;1.57;;;14.60;1.00;;;;;;5012726;28;20776;-67
2022/10/15 01:41:20;;;;;;;1.67;1.30;;;14.50;1.00;;;;;;5011053;28;20482;-68
2022/10/15 01:44:08;;;;;;;1.47;1.00;;;14.50;1.00;;;;;;5012507;28;20403;-67
2022/10/15 01:46:43;;;;;;;1.60;1.03;;;14.50;1.00;;;;;;4994252;28;20565;-68
2022/10/15 01:49:11;;;;;;;2.90;1.20;;;14.60;1.00;;;;;;5012221;28;20748;-71
2022/10/15 01:51:40;;;;;;;2.23;1.23;;;14.60;1.00;;;;;;5012245;28;20490;-70
2022/10/15 01:54:10;;;;;;;2.57;1.00;;;14.50;1.00;;;;;;5013000;28;20446;-70
2022/10/15 01:56:37;;;;;;;2.03;1.30;;;14.50;1.00;;;;;;5013043;28;20747;-71
2022/10/15 01:59:04;;;;;;;2.97;1.20;;;14.60;1.00;;;;;;5012461;28;20494;-70
2022/10/15 02:01:29;;;;;;;1.63;1.33;;;14.70;1.00;;;;;;5011581;28;20946;-71
2022/10/15 02:03:55;;;;;;;4.47;1.47;;;14.60;1.00;;;;;;5012666;28;20410;-70
2022/10/15 02:06:28;;;;;;;2.03;1.20;;;14.70;1.00;;;;;;5011766;28;20256;-71
2022/10/15 02:09:03;;;;;;;2.40;1.23;;;14.60;1.00;;;;;;5011899;28;20176;-71
2022/10/15 02:11:35;;;;;;;2.03;1.00;;;14.60;1.00;;;;;;5010734;28;20402;-70
2022/10/15 02:14:10;;;;;;;1.23;0.93;;;14.70;1.00;;;;;;5011772;28;20544;-69
2022/10/15 02:16:46;;;;;;;6.90;1.33;;;14.60;1.00;;;;;;5010938;28;20399;-70
2022/10/15 02:19:21;;;;;;;1.73;1.00;;;14.70;1.00;;;;;;5011700;28;20449;-69
2022/10/15 02:21:52;;;;;;;7.03;1.10;;;14.60;1.00;;;;;;5009128;28;20457;-69
2022/10/15 02:24:40;;;;;;;4.40;1.00;;;14.70;1.00;;;;;;5011538;28;20429;-70
2022/10/15 02:27:07;;;;;;;3.30;0.97;;;14.70;1.00;;;;;;5011606;28;20550;-70
2022/10/15 02:29:35;;;;;;;1.67;0.80;;;14.70;1.00;;;;;;5011892;28;20399;-69
2022/10/15 02:32:04;;;;;;;3.17;1.20;;;14.70;1.00;;;;;;5010062;28;20439;-70
2022/10/15 02:34:32;;;;;;;8.43;1.33;;;14.70;1.00;;;;;;5011682;28;20761;-70
2022/10/15 02:37:02;;;;;;;3.77;0.80;;;14.70;1.00;;;;;;5011301;28;20490;-70
2022/10/15 02:39:27;;;;;;;2.30;1.00;;;14.70;1.00;;;;;;5011530;28;20404;-69
2022/10/15 02:41:54;;;;;;;2.60;1.20;;;14.70;1.00;;;;;;5013452;28;20407;-69
2022/10/15 02:44:20;;;;;;;1.20;0.90;;;14.70;1.00;;;;;;5013863;28;20188;-69
2022/10/15 02:46:46;;;;;;;1.40;0.73;;;14.80;1.00;;;;;;5013635;28;20396;-70
2022/10/15 02:49:12;;;;;;;2.27;1.73;;;14.80;1.00;;;;;;5013746;28;20403;-70
2022/10/15 02:51:38;;;;;;;3.93;0.77;;;14.80;1.00;;;;;;5014453;28;20418;-70
2022/10/15 02:54:05;;;;;;;3.40;1.00;;;14.80;1.00;;;;;;5015096;28;20204;-70
2022/10/15 02:56:32;;;;;;;2.80;0.90;;;14.80;1.00;;;;;;5013857;28;20408;-69
2022/10/15 02:58:57;;;;;;;3.67;1.20;;;14.80;1.00;;;;;;5011244;28;20494;-69
2022/10/15 03:01:23;;;;;;;6.50;1.10;;;14.80;1.00;;;;;;5009586;28;20882;-69
2022/10/15 03:03:49;;;;;;;3.97;1.10;;;14.80;1.00;;;;;;5011331;28;20251;-70
2022/10/15 03:06:14;;;;;;;1.33;0.90;;;14.80;1.00;;;;;;5010781;28;20182;-70
2022/10/15 03:08:41;;;;;;;1.00;0.70;;;14.90;1.00;;;;;;5011175;28;20635;-70
2022/10/15 03:11:07;;;;;;;1.83;0.90;;;14.90;1.00;;;;;;5009249;28;20200;-70
2022/10/15 03:13:37;;;;;;;6.40;0.80;;;14.90;1.00;;;;;;5011127;28;20411;-70
2022/10/15 03:16:05;;;;;;;2.80;1.10;;;14.90;1.00;;;;;;5010628;28;20458;-70
2022/10/15 03:18:31;;;;;;;1.60;1.20;;;14.90;1.00;;;;;;5010976;28;20909;-71
2022/10/15 03:20:57;;;;;;;1.20;0.90;;;14.90;1.00;;;;;;5008419;28;20485;-70
2022/10/15 03:23:23;;;;;;;1.57;0.90;;;14.90;1.00;;;;;;5011750;28;20530;-69
2022/10/15 03:25:49;;;;;;;4.70;1.30;;;14.90;1.00;;;;;;5010554;28;20199;-70
2022/10/15 03:28:15;;;;;;;1.30;0.80;;;14.90;1.00;;;;;;5010433;28;20403;-70
2022/10/15 03:30:42;;;;;;;5.80;1.30;;;15.00;1.00;;;;;;5009159;28;20403;-69
2022/10/15 03:33:07;;;;;;;5.83;1.10;;;15.00;1.00;;;;;;5010448;28;20411;-70
2022/10/15 03:35:33;;;;;;;4.37;1.13;;;15.00;1.00;;;;;;5010000;28;20511;-69
2022/10/15 03:37:59;;;;;;;1.30;1.00;;;15.00;1.00;;;;;;5010406;28;20656;-69
2022/10/15 03:40:24;;;;;;;1.67;0.80;;;15.00;1.00;;;;;;5009364;28;20341;-69
2022/10/15 03:42:51;;;;;;;2.47;0.90;;;14.90;1.00;;;;;;5010224;28;20168;-70
2022/10/15 03:45:18;;;;;;;1.57;1.00;;;15.00;1.00;;;;;;5009647;28;20207;-70
2022/10/15 03:47:44;;;;;;;1.27;0.80;;;15.00;1.00;;;;;;5010236;28;20403;-70
2022/10/15 03:50:10;;;;;;;2.23;0.90;;;15.00;1.00;;;;;;5009839;28;20417;-70
2022/10/15 03:52:36;;;;;;;3.63;0.80;;;15.10;1.00;;;;;;5009780;28;20254;-69
2022/10/15 03:55:02;;;;;;;2.30;0.97;;;15.00;1.00;;;;;;5011833;28;20220;-69
2022/10/15 03:57:28;;;;;;;1.50;0.80;;;15.10;1.00;;;;;;5011625;28;20442;-70
2022/10/15 03:59:54;;;;;;;4.60;1.00;;;15.00;1.00;;;;;;5010238;28;20450;-69
2022/10/15 04:02:20;;;;;;;2.03;1.33;;;15.00;1.00;;;;;;4997601;28;20169;-69
2022/10/15 04:04:46;;;;;;;2.27;0.73;;;15.00;1.00;;;;;;5009867;28;20239;-71
2022/10/15 04:07:11;;;;;;;1.40;0.90;;;15.00;1.00;;;;;;5010254;28;20179;-69
2022/10/15 04:09:37;;;;;;;1.30;0.80;;;15.10;1.00;;;;;;5009938;28;20273;-70
2022/10/15 04:12:03;;;;;;;1.57;1.10;;;15.10;1.00;;;;;;5009042;28;20613;-70
2022/10/15 04:14:29;;;;;;;1.23;0.80;;;15.10;1.00;;;;;;5009801;28;20673;-70
2022/10/15 04:16:55;;;;;;;1.70;0.93;;;15.10;1.00;;;;;;5009495;28;20414;-70
2022/10/15 04:19:21;;;;;;;6.57;1.37;;;15.10;1.00;;;;;;5063825;22;20232;-69
2022/10/15 04:21:46;;;;;;;2.20;1.20;;;15.00;1.00;;;;;;5003384;28;20476;-69
2022/10/15 04:24:12;;;;;;;1.33;0.70;;;15.00;1.00;;;;;;5012694;28;20277;-68
2022/10/15 04:26:38;;;;;;;1.20;0.90;;;15.00;1.00;;;;;;5012700;28;20173;-67
2022/10/15 04:29:03;;;;;;;1.97;0.90;;;15.00;1.00;;;;;;5012837;28;20179;-68
2022/10/15 04:31:29;;;;;;;1.67;0.90;;;15.00;1.00;;;;;;5011545;28;20263;-66
2022/10/15 04:33:55;;;;;;;4.87;1.30;;;15.00;1.00;;;;;;5035338;22;20288;-65
2022/10/15 04:36:20;;;;;;;1.23;0.90;;;15.10;1.00;;;;;;5012136;28;20230;-65
2022/10/15 04:38:46;;;;;;;1.80;0.90;;;15.10;1.00;;;;;;5013204;28;20179;-65
2022/10/15 04:41:12;;;;;;;3.10;1.13;;;15.00;1.00;;;;;;5011781;28;20695;-65
2022/10/15 04:43:39;;;;;;;3.63;1.30;;;15.10;1.00;;;;;;5012705;28;20192;-65
2022/10/15 04:46:07;;;;;;;5.90;1.00;;;15.10;1.00;;;;;;5012408;28;20403;-65
2022/10/15 04:48:34;;;;;;;1.83;1.20;;;15.10;1.00;;;;;;5012734;28;20752;-65
2022/10/15 04:51:15;;;;;;;7.60;0.93;;;15.10;1.00;;;;;;5011703;28;20430;-65
2022/10/15 04:53:41;;;;;;;5.10;1.00;;;15.00;1.00;;;;;;5012280;28;20443;-65
2022/10/15 04:56:14;;;;;;;1.53;0.97;;;15.10;1.00;;;;;;5012453;28;20419;-65
2022/10/15 04:58:40;;;;;;;4.40;1.10;;;15.10;1.00;;;;;;5012521;28;20411;-65
2022/10/15 05:01:10;;;;;;;2.10;0.90;;;15.10;1.00;;;;;;5011377;28;20459;-65
2022/10/15 05:03:37;;;;;;;2.13;0.93;;;15.10;1.00;;;;;;5012651;28;20462;-64
2022/10/15 05:06:06;;;;;;;1.10;0.80;;;15.10;1.00;;;;;;5012068;28;20497;-65
2022/10/15 05:08:33;;;;;;;4.17;1.27;;;15.10;1.00;;;;;;5012665;28;20419;-65
2022/10/15 05:11:04;;;;;;;4.90;1.33;;;15.10;1.00;;;;;;5011454;28;20914;-65
2022/10/15 05:13:30;;;;;;;15.50;2.60;;;15.10;1.00;;;;;;5011311;28;20435;-65
2022/10/15 05:15:56;;;;;;;7.37;1.77;;;15.10;1.00;;;;;;5017701;28;20424;-65
2022/10/15 05:18:22;;;;;;;4.60;1.20;;;15.10;1.00;;;;;;5023754;28;20783;-65
2022/10/15 05:20:47;;;;;;;6.97;1.73;;;15.10;1.00;;;;;;5017715;28;20468;-65
2022/10/15 05:23:14;;;;;;;8.00;2.17;;;15.10;1.00;;;;;;5002732;28;20680;-65
2022/10/15 05:25:39;;;;;;;4.40;1.20;;;15.10;1.00;;;;;;5031703;28;20243;-64
2022/10/15 05:28:05;;;;;;;6.30;1.30;;;15.20;1.00;;;;;;5019162;28;20500;-65
2022/10/15 05:30:33;;;;;;;3.63;1.30;;;15.20;1.00;;;;;;5011077;28;20659;-65
2022/10/15 05:32:58;;;;;;;5.07;1.13;;;15.20;1.00;;;;;;5018558;28;20212;-65
2022/10/15 05:35:24;;;;;;;6.93;1.30;;;15.20;1.00;;;;;;5012207;28;20438;-65
2022/10/15 05:37:50;;;;;;;4.10;1.50;;;15.20;1.00;;;;;;5012034;28;20655;-65
2022/10/15 05:40:16;;;;;;;9.50;1.90;;;15.20;1.00;;;;;;5013761;28;20251;-66
2022/10/15 05:42:42;;;;;;;4.53;1.40;;;15.20;1.00;;;;;;5016508;28;20250;-66
2022/10/15 05:45:08;;;;;;;1.63;0.87;;;15.20;1.00;;;;;;5011798;28;20176;-67
2022/10/15 05:47:33;;;;;;;1.10;0.87;;;15.20;1.00;;;;;;4992920;28;20172;-67
2022/10/15 05:49:59;;;;;;;2.13;1.50;;;15.20;1.00;;;;;;5009709;28;20477;-66
2022/10/15 05:52:25;;;;;;;10.93;1.60;;;15.20;1.00;;;;;;5015947;28;20280;-67
2022/10/15 05:54:50;;;;;;;19.40;3.10;;;15.20;1.00;;;;;;5017017;28;20176;-67
2022/10/15 05:57:16;;;;;;;3.77;1.00;;;15.20;1.00;;;;;;5029639;28;20178;-67
2022/10/15 05:59:41;;;;;;;8.90;0.90;;;15.20;1.00;;;;;;5031126;28;20227;-67
2022/10/15 06:02:09;;;;;;;10.07;1.63;;;15.30;1.00;;;;;;5007669;28;20242;-66
2022/10/15 06:04:35;;;;;;;3.07;1.10;;;15.30;1.00;;;;;;5010936;28;20152;-67
2022/10/15 06:07:00;;;;;;;3.73;1.07;;;15.30;1.00;;;;;;5010478;28;20776;-66
2022/10/15 06:09:27;;;;;;;1.97;0.93;;;15.30;1.00;;;;;;5010939;28;20561;-67
2022/10/15 06:11:52;;;;;;;3.17;1.30;;;15.30;1.00;;;;;;5018084;28;20194;-67
2022/10/15 06:14:18;;;;;;;5.43;1.03;;;15.30;1.00;;;;;;5010182;28;20461;-68
2022/10/15 06:16:44;;;;;;;7.27;1.83;;;15.20;1.00;;;;;;5009337;28;20249;-66
2022/10/15 06:19:10;;;;;;;7.23;1.17;;;15.30;1.00;;;;;;5010148;28;20686;-66
2022/10/15 06:21:36;;;;;;;76.77;6.87;;;15.30;1.00;;;;;;5010891;28;20553;-67
2022/10/15 06:24:01;;;;;;;22.47;2.23;;;15.30;1.00;;;;;;5017468;28;20346;-68
2022/10/15 06:26:27;;;;;;;8.20;1.80;;;15.30;1.00;;;;;;5017918;28;20176;-68
2022/10/15 06:28:54;;;;;;;6.97;1.90;;;15.30;1.00;;;;;;5015969;28;20181;-65
2022/10/15 06:31:19;;;;;;;3.03;1.10;;;15.40;1.00;;;;;;5015455;28;20180;-65
2022/10/15 06:33:45;;;;;;;3.70;1.10;;;15.40;1.00;;;;;;5013913;28;20478;-68
2022/10/15 06:36:12;;;;;;;5.30;1.30;;;15.40;1.00;;;;;;5021748;28;20226;-67
2022/10/15 06:38:38;;;;;;;4.63;1.20;;;15.40;1.00;;;;;;5022240;28;20238;-68
2022/10/15 06:41:05;;;;;;;3.30;1.30;;;15.30;1.00;;;;;;5018348;28;20470;-67
2022/10/15 06:43:31;;;;;;;19.90;4.40;;;15.30;1.00;;;;;;5010894;28;22017;-67
2022/10/15 06:45:58;;;;;;;12.40;2.20;;;15.40;1.00;;;;;;5008170;28;20434;-66
2022/10/15 06:48:24;;;;;;;13.80;2.20;;;15.40;1.00;;;;;;5018315;28;20169;-68
2022/10/15 06:50:50;;;;;;;7.43;1.60;;;15.40;1.00;;;;;;5009950;28;20422;-67
2022/10/15 06:53:15;;;;;;;14.10;2.10;;;15.40;1.00;;;;;;5010665;28;20192;-67
2022/10/15 06:55:41;;;;;;;12.60;1.73;;;15.50;1.00;;;;;;5010710;28;20291;-67
2022/10/15 06:58:07;;;;;;;4.07;1.43;;;15.50;1.00;;;;;;5010608;28;20172;-67
2022/10/15 07:00:33;;;;;;;7.43;2.20;;;15.50;1.00;;;;;;5009406;28;20996;-66
2022/10/15 07:03:04;;;;;;;18.37;4.00;;;15.50;1.00;;;;;;5010632;28;20241;-67
2022/10/15 07:05:29;;;;;;;24.43;2.43;;;15.50;1.00;;;;;;5009921;28;20751;-67
2022/10/15 07:07:56;;;;;;;10.83;2.23;;;15.50;1.00;;;;;;5010250;28;20411;-66
2022/10/15 07:10:22;;;;;;;17.93;2.70;;;15.60;1.00;;;;;;5009998;28;20180;-67
2022/10/15 07:12:48;;;;;;;5.33;1.30;;;15.60;1.00;;;;;;5009928;28;20796;-66
2022/10/15 07:15:15;;;;;;;7.37;1.73;;;15.60;1.00;;;;;;5010170;28;20417;-64
2022/10/15 07:17:47;;;;;;;3.93;1.27;;;15.60;1.00;;;;;;5009681;28;20173;-66
2022/10/15 07:20:13;;;;;;;3.20;1.33;;;15.60;1.00;;;;;;5010606;28;20544;-66
2022/10/15 07:22:39;;;;;;;2.23;1.10;;;15.60;1.00;;;;;;5010165;28;20436;-66
2022/10/15 07:25:05;;;;;;;1.93;1.10;;;15.70;1.00;;;;;;5009952;28;20403;-65
2022/10/15 07:27:30;;;;;;;1.77;1.20;;;15.70;1.00;;;;;;5010144;28;20172;-66
2022/10/15 07:29:56;;;;;;;3.20;1.60;;;15.80;1.00;;;;;;5009969;28;20175;-67
2022/10/15 07:32:22;;;;;;;4.27;1.43;;;15.80;1.00;;;;;;5008893;28;20203;-65
2022/10/15 07:34:47;;;;;;;10.40;2.10;;;15.80;1.00;;;;;;5009528;28;20195;-66
2022/10/15 07:37:13;;;;;;;3.43;1.40;;;15.80;1.00;;;;;;5009778;28;20203;-66
2022/10/15 07:39:39;;;;;;;50.17;8.73;;;15.90;1.00;;;;;;5010147;28;20204;-64
2022/10/15 07:42:04;;;;;;;21.40;2.83;;;15.90;1.00;;;;;;5008959;28;20529;-65
2022/10/15 07:44:30;;;;;;;12.40;2.77;;;15.90;1.00;;;;;;5009739;28;20206;-64
2022/10/15 07:46:56;;;;;;;10.23;2.40;;;15.90;1.00;;;;;;5009331;28;20230;-65
2022/10/15 07:49:21;;;;;;;6.60;2.10;;;15.90;1.00;;;;;;5009807;28;20168;-65
2022/10/15 07:51:47;;;;;;;3.50;2.33;;;16.00;1.00;;;;;;5008757;28;20227;-68
2022/10/15 07:54:13;;;;;;;2.37;1.60;;;16.00;1.00;;;;;;5009469;28;20258;-65
2022/10/15 07:56:38;;;;;;;3.40;2.03;;;16.00;1.00;;;;;;4993876;28;20529;-66
2022/10/15 07:59:04;;;;;;;3.73;1.57;;;16.00;1.00;;;;;;5014203;28;20176;-67
2022/10/15 08:01:30;;;;;;;5.93;2.20;;;16.10;1.00;;;;;;5012645;28;20399;-67
2022/10/15 08:03:55;;;;;;;12.87;2.20;;;16.10;1.00;;;;;;5013944;28;20202;-67
2022/10/15 08:06:21;;;;;;;7.50;2.03;;;16.00;1.00;;;;;;5013574;28;20176;-67
2022/10/15 08:08:47;;;;;;;10.03;2.30;;;16.00;1.00;;;;;;5014046;28;20211;-66
2022/10/15 08:11:14;;;;;;;8.67;1.90;;;16.00;1.00;;;;;;5012999;28;20188;-67
2022/10/15 08:13:41;;;;;;;25.83;3.17;;;16.00;1.00;;;;;;5013732;28;20196;-67
2022/10/15 08:16:12;;;;;;;8.20;2.20;;;16.10;1.00;;;;;;5012861;28;20422;-67
2022/10/15 08:18:38;;;;;;;14.10;2.17;;;16.10;1.00;;;;;;5013522;28;20426;-67
2022/10/15 08:21:05;;;;;;;12.87;3.03;;;16.20;1.00;;;;;;5012587;28;20473;-66
2022/10/15 08:23:31;;;;;;;16.20;2.40;;;16.20;1.00;;;;;;5013681;28;20919;-67
2022/10/15 08:26:00;;;;;;;19.40;3.47;;;16.10;1.00;;;;;;5013369;28;20513;-65
2022/10/15 08:28:27;;;;;;;12.47;2.97;;;16.20;1.00;;;;;;5013298;28;20781;-67
2022/10/15 08:30:54;;;;;;;13.83;2.93;;;16.10;1.00;;;;;;5011823;28;20419;-67
2022/10/15 08:33:20;;;;;;;29.20;4.40;;;16.10;1.00;;;;;;5012686;28;20455;-66
2022/10/15 08:35:45;;;;;;;37.27;4.63;;;16.20;1.00;;;;;;5012987;28;20415;-65
2022/10/15 08:38:11;;;;;;;9.23;2.40;;;16.20;1.00;;;;;;5013319;28;20177;-67
2022/10/15 08:40:41;;;;;;;17.97;2.70;;;16.30;1.00;;;;;;5012248;28;20200;-67
2022/10/15 08:43:36;;;;;;;13.93;2.93;;;16.20;1.00;;;;;;5013192;28;20624;-66
2022/10/15 08:46:08;;;;;;;10.97;2.23;;;16.20;1.00;;;;;;5011742;28;20493;-66
2022/10/15 08:48:40;;;;;;;8.10;2.57;;;16.20;1.00;;;;;;5012874;28;20391;-66
2022/10/15 08:51:12;;;;;;;19.70;2.20;;;16.20;1.00;;;;;;5012027;28;20411;-66
2022/10/15 08:53:51;;;;;;;10.00;1.80;;;16.20;1.00;;;;;;5012821;28;20502;-67
2022/10/15 08:56:22;;;;;;;23.47;3.30;;;16.30;1.00;;;;;;5012959;28;20403;-67
2022/10/15 08:59:10;;;;;;;24.37;3.37;;;16.40;1.00;;;;;;5013139;28;20407;-67
2022/10/15 09:02:05;;;;;;;94.83;10.30;;;16.50;1.00;;;;;;5011728;28;20995;-66
2022/10/15 09:04:43;;;;;;;72.63;9.57;;;16.60;1.00;;;;;;5009574;28;20817;-67
2022/10/15 09:07:22;;;;;;;15.03;2.50;;;16.80;1.00;;;;;;5011926;28;20404;-67
2022/10/15 09:10:01;;;;;;;11.27;2.93;;;16.80;1.00;;;;;;5011977;28;20395;-66
2022/10/15 09:12:47;;;;;;;44.33;4.77;;;16.80;1.00;;;;;;5011872;28;20419;-66
2022/10/15 09:15:16;;;;;;;65.00;5.13;;;16.80;1.00;;;;;;5012836;28;20777;-67
2022/10/15 09:17:45;;;;;;;22.63;2.63;;;16.90;1.00;;;;;;5012191;28;20750;-67
2022/10/15 09:20:17;;;;;;;8.10;2.00;;;17.00;1.00;;;;;;5011732;28;20455;-65
2022/10/15 09:22:44;;;;;;;3.57;1.23;;;17.30;1.00;;;;;;5012010;28;20415;-65
2022/10/15 09:25:15;;;;;;;6.10;1.50;;;17.40;1.00;;;;;;5012099;28;20403;-65
2022/10/15 09:27:42;;;;;;;3.70;1.30;;;17.40;1.00;;;;;;5012589;28;20403;-65
2022/10/15 09:30:44;;;;;;;3.40;1.30;;;17.30;1.00;;;;;;5011975;28;20477;-65
2022/10/15 09:33:34;;;;;;;11.07;1.80;;;17.40;1.00;;;;;;5012428;28;20446;-65
2022/10/15 09:36:22;;;;;;;33.70;5.23;;;17.40;1.00;;;;;;5012566;28;21063;-67
2022/10/15 09:39:30;;;;;;;16.00;2.40;;;17.40;1.00;;;;;;5012987;28;20767;-67
2022/10/15 09:42:36;;;;;;;15.23;4.17;;;17.40;1.00;;;;;;4998335;28;20438;-66
2022/10/15 09:45:08;;;;;;;16.10;3.60;;;17.60;1.00;;;;;;5011927;28;20405;-68
2022/10/15 09:47:35;;;;;;;2.80;1.07;;;17.60;1.00;;;;;;5011862;28;20594;-67
2022/10/15 09:50:04;;;;;;;4.50;1.20;;;17.60;1.00;;;;;;5011390;28;20410;-66
2022/10/15 09:52:38;;;;;;;1.87;1.10;;;17.80;1.00;;;;;;5011089;28;20420;-66
2022/10/15 09:55:38;;;;;;;7.10;1.57;;;18.00;1.00;;;;;;5011521;28;20398;-65
2022/10/15 09:58:17;;;;;;;2.37;1.00;;;18.10;1.00;;;;;;5011325;28;20399;-66
2022/10/15 10:00:54;;;;;;;20.50;3.07;;;18.10;1.00;;;;;;5009957;28;20605;-67
2022/10/15 10:03:23;;;;;;;2.13;1.10;;;18.00;1.00;;;;;;5011461;28;20784;-68
2022/10/15 10:05:50;;;;;;;15.03;1.93;;;18.10;1.00;;;;;;5011116;28;20423;-66
2022/10/15 10:08:20;;;;;;;3.57;1.40;;;18.00;1.00;;;;;;5011280;28;20442;-66
2022/10/15 10:11:00;;;;;;;41.97;4.90;;;18.00;1.00;;;;;;5010479;28;20921;-65
2022/10/15 10:13:49;;;;;;;11.90;1.70;;;18.00;1.00;;;;;;5011105;28;20423;-68
2022/10/15 10:16:17;;;;;;;7.63;1.73;;;18.00;1.00;;;;;;4992739;28;20419;-67
2022/10/15 10:19:00;;;;;;;2.67;1.27;;;17.90;1.00;;;;;;5010587;28;20404;-67
2022/10/15 10:21:34;;;;;;;7.40;1.43;;;17.80;1.00;;;;;;5006011;28;20466;-66
2022/10/15 10:24:30;;;;;;;35.93;4.43;;;17.70;1.00;;;;;;5011218;28;20470;-66
2022/10/15 10:27:01;;;;;;;120.13;12.63;;;17.70;1.00;;;;;;5010974;28;20805;-67
2022/10/15 10:29:29;;;;;;;21.80;3.03;;;17.80;1.00;;;;;;5009605;28;20561;-66
2022/10/15 10:31:58;;;;;;;10.13;2.23;;;17.90;1.00;;;;;;5010040;28;21317;-65
2022/10/15 10:34:28;;;;;;;41.93;4.17;;;18.00;1.00;;;;;;5047063;22;20585;-71
2022/10/15 10:36:54;;;;;;;15.77;2.00;;;18.10;1.00;;;;;;5029200;28;20444;-71
2022/10/15 10:39:27;;;;;;;8.97;1.97;;;18.10;99.90;;;;;;5024436;28;20893;-71
2022/10/15 10:41:57;;;;;;;19.70;2.60;;;18.20;99.90;;;;;;5031004;28;20414;-71
2022/10/15 10:44:35;;;;;;;11.03;1.57;;;18.30;99.90;;;;;;5028768;28;20733;-73
2022/10/15 10:47:07;;;;;;;8.30;1.80;;;18.20;1.00;;;;;;5019600;28;20526;-71
2022/10/15 10:49:39;;;;;;;3.80;1.17;;;18.30;1.00;;;;;;5023825;28;20722;-72
2022/10/15 10:52:17;;;;;;;4.03;1.13;;;18.20;1.00;;;;;;5030996;28;20802;-72
2022/10/15 10:54:43;;;;;;;2.90;1.23;;;18.20;99.90;;;;;;5031615;28;20438;-72
2022/10/15 10:57:12;;;;;;;49.40;5.07;;;18.20;99.90;;;;;;5026402;28;20431;-72
2022/10/15 10:59:52;;;;;;;25.57;4.27;;;18.20;63.20;;;;;;5023137;28;20459;-71
2022/10/15 11:02:18;;;;;;;8.57;1.83;;;18.30;1.00;;;;;;5030885;28;20967;-72
2022/10/15 11:04:45;;;;;;;15.10;3.17;;;18.30;1.00;;;;;;5031784;28;21319;-70
2022/10/15 11:07:49;;;;;;;9.57;2.43;;;18.20;1.00;;;;;;5032375;28;20441;-71
2022/10/15 11:10:22;;;;;;;4.10;1.27;;;18.20;1.00;;;;;;5013176;28;20479;-72
2022/10/15 11:13:06;;;;;;;9.57;2.80;;;18.40;99.90;;;;;;5031159;28;20819;-72
2022/10/15 11:16:02;;;;;;;2.70;1.20;;;18.50;1.00;;;;;;5030652;28;20430;-70
2022/10/15 11:19:10;;;;;;;6.63;2.33;;;18.70;99.90;;;;;;5032122;28;20433;-72
2022/10/15 11:21:57;;;;;;;9.07;2.17;;;19.20;1.00;;;;;;5015246;28;20469;-72
2022/10/15 11:24:48;;;;;;;23.60;2.77;;;19.50;1.00;;;;;;5015767;28;20438;-71
2022/10/15 11:27:35;;;;;;;6.53;2.33;;;19.80;99.90;;;;;;5005643;28;20582;-74
2022/10/15 11:30:42;;;;;;;15.60;2.50;;;19.90;1.00;;;;;;5030867;28;20402;-72
2022/10/15 11:33:26;;;;;;;14.80;3.90;;;20.10;99.90;;;;;;5003634;28;20836;-72
2022/10/15 11:36:11;;;;;;;25.83;3.10;;;20.30;1.00;;;;;;5030482;28;20410;-73
2022/10/15 11:38:55;;;;;;;22.07;3.20;;;20.30;1.00;;;;;;5031138;28;20895;-71
2022/10/15 11:41:39;;;;;;;33.10;4.07;;;20.20;1.00;;;;;;5029510;28;20487;-71
2022/10/15 11:44:08;;;;;;;64.73;8.10;;;20.10;1.00;;;;;;5030874;28;20781;-72
2022/10/15 11:46:59;;;;;;;4.57;1.97;;;20.20;1.00;;;;;;5030512;28;20410;-72
2022/10/15 11:49:59;;;;;;;26.00;3.93;;;20.40;99.90;;;;;;5030738;28;20405;-72
2022/10/15 11:52:45;;;;;;;53.77;5.57;;;20.00;1.00;;;;;;5030171;28;20410;-72
2022/10/15 11:55:22;;;;;;;47.67;4.50;;;19.90;1.00;;;;;;5030338;28;20394;-72
2022/10/15 11:57:52;;;;;;;15.17;3.07;;;19.70;1.00;;;;;;5031361;28;20481;-73
2022/10/15 12:00:19;;;;;;;26.67;4.80;;;19.50;1.00;;;;;;5030216;28;20647;-72
2022/10/15 12:02:46;;;;;;;36.23;4.40;;;19.50;1.00;;;;;;5031024;28;20402;-73
2022/10/15 12:05:27;;;;;;;32.83;3.97;;;19.50;1.00;;;;;;5031697;28;20753;-71
2022/10/15 12:07:54;;;;;;;29.27;3.43;;;19.40;1.00;;;;;;5033069;28;20399;-72
2022/10/15 12:10:26;;;;;;;3.83;1.30;;;19.40;1.00;;;;;;5031782;28;20414;-73
2022/10/15 12:13:25;;;;;;;3.50;1.47;;;19.50;1.00;;;;;;5030608;28;20426;-73
2022/10/15 12:16:10;;;;;;;4.13;1.50;;;19.50;1.00;;;;;;5030095;28;20886;-74
2022/10/15 12:18:38;;;;;;;2.63;1.80;;;19.60;1.00;;;;;;5029769;28;20899;-71
2022/10/15 12:21:26;;;;;;;8.10;1.83;;;19.50;1.00;;;;;;5029058;28;20476;-72
2022/10/15 12:23:52;;;;;;;15.53;3.73;;;19.50;1.00;;;;;;5029793;28;20431;-72
2022/10/15 12:26:24;;;;;;;5.20;1.30;;;19.50;1.00;;;;;;5029496;28;20448;-71
2022/10/15 12:28:52;;;;;;;14.80;2.20;;;19.50;1.00;;;;;;5029489;28;20160;-72
2022/10/15 12:31:19;;;;;;;11.90;2.27;;;19.40;1.00;;;;;;5028284;28;20406;-71
2022/10/15 12:33:51;;;;;;;19.83;3.07;;;19.30;1.00;;;;;;5012259;28;20450;-71
2022/10/15 12:36:28;;;;;;;9.47;3.33;;;19.30;1.00;;;;;;5028996;28;20486;-70
2022/10/15 12:39:19;;;;;;;8.97;1.87;;;19.30;1.00;;;;;;5029304;28;20485;-68
2022/10/15 12:41:47;;;;;;;3.03;1.53;;;19.40;1.00;;;;;;5028212;28;20522;-70
2022/10/15 12:44:21;;;;;;;24.33;2.67;;;19.40;1.00;;;;;;5032689;28;20764;-70
2022/10/15 12:46:47;;;;;;;23.67;2.83;;;19.40;1.00;;;;;;5031994;28;20488;-70
2022/10/15 12:49:31;;;;;;;2.97;1.50;;;19.30;1.00;;;;;;5032401;28;20434;-69
2022/10/15 12:52:01;;;;;;;4.83;1.53;;;19.20;1.00;;;;;;5031570;28;20183;-69
2022/10/15 12:54:36;;;;;;;1.90;1.47;;;19.30;1.00;;;;;;5032357;28;20433;-68
2022/10/15 12:57:22;;;;;;;5.83;1.70;;;19.40;1.00;;;;;;5031376;28;20413;-69
2022/10/15 12:59:59;;;;;;;2.57;1.50;;;19.60;99.90;;;;;;5032403;28;20922;-69
2022/10/15 13:02:37;;;;;;;3.93;1.37;;;19.80;99.90;;;;;;5031649;28;20432;-71
2022/10/15 13:05:05;;;;;;;14.80;2.53;;;19.90;99.90;;;;;;5032383;28;20761;-70
2022/10/15 13:07:37;;;;;;;29.13;5.37;;;19.80;99.90;;;;;;5032103;28;20864;-72
2022/10/15 13:10:14;;;;;;;17.00;3.23;;;19.70;99.90;;;;;;5032302;28;20414;-70
2022/10/15 13:12:40;;;;;;;9.20;1.60;;;19.60;99.90;;;;;;5047226;22;20488;-69
2022/10/15 13:15:12;;;;;;;18.57;2.10;;;19.60;99.90;;;;;;5018570;28;20443;-69